Terminal Aerodrome Forecast
Issued by NWS Cleveland, OH

Home | Current Version | Previous Version | Graphics & Text | Print | Product List | Glossary On
Versions: 1 2 3 4 5 6 7 8 9 10 11 12 13 14 15
000
FTUS41 KCLE 301700
TAFERI
TAF
KERI 301731Z 3018/0118 35008KT 4SM -SHRA BR OVC005
     FM010100 02005KT P6SM BKN015 OVC030
     FM010500 06005KT P6SM BKN030
     FM011000 01006KT P6SM SCT060=

USA.gov is the U.S. government's official web portal to all federal, state and local government web resources and services.